sensor_id;sensor_type;location;lat;lon;timestamp;temperature;humidity
29777;DHT22;16677;52.224;7.484;2023-04-19T00:00:44;10.40;99.90
29777;DHT22;16677;52.224;7.484;2023-04-19T00:03:11;10.50;99.90
29777;DHT22;16677;52.224;7.484;2023-04-19T00:05:40;10.40;99.90
29777;DHT22;16677;52.224;7.484;2023-04-19T00:08:08;10.40;1.00
29777;DHT22;16677;52.224;7.484;2023-04-19T00:10:36;10.40;99.90
29777;DHT22;16677;52.224;7.484;2023-04-19T00:13:05;10.30;1.00
29777;DHT22;16677;52.224;7.484;2023-04-19T00:15:33;10.30;99.90
29777;DHT22;16677;52.224;7.484;2023-04-19T00:18:01;10.20;1.00
29777;DHT22;16677;52.224;7.484;2023-04-19T00:20:28;10.20;1.00
29777;DHT22;16677;52.224;7.484;2023-04-19T00:22:56;10.10;1.00
29777;DHT22;16677;52.224;7.484;2023-04-19T00:25:25;10.10;1.00
29777;DHT22;16677;52.224;7.484;2023-04-19T00:27:54;10.10;1.00
29777;DHT22;16677;52.224;7.484;2023-04-19T00:30:21;10.00;1.00
29777;DHT22;16677;52.224;7.484;2023-04-19T00:32:49;10.00;1.00
29777;DHT22;16677;52.224;7.484;2023-04-19T00:35:16;10.00;1.00
29777;DHT22;16677;52.224;7.484;2023-04-19T00:37:44;9.90;1.00
29777;DHT22;16677;52.224;7.484;2023-04-19T00:40:11;9.90;1.00
29777;DHT22;16677;52.224;7.484;2023-04-19T00:42:39;9.90;1.00
29777;DHT22;16677;52.224;7.484;2023-04-19T00:45:06;9.90;1.00
29777;DHT22;16677;52.224;7.484;2023-04-19T00:47:34;9.80;1.00
29777;DHT22;16677;52.224;7.484;2023-04-19T00:50:05;9.80;1.00
29777;DHT22;16677;52.224;7.484;2023-04-19T00:52:34;9.80;1.00
29777;DHT22;16677;52.224;7.484;2023-04-19T00:55:03;9.70;1.00
29777;DHT22;16677;52.224;7.484;2023-04-19T00:57:32;9.70;1.00
29777;DHT22;16677;52.224;7.484;2023-04-19T01:02:34;9.70;1.00
29777;DHT22;16677;52.224;7.484;2023-04-19T01:05:02;9.70;1.00
29777;DHT22;16677;52.224;7.484;2023-04-19T01:07:32;9.70;1.00
29777;DHT22;16677;52.224;7.484;2023-04-19T01:10:01;9.60;1.00
29777;DHT22;16677;52.224;7.484;2023-04-19T01:12:29;9.60;1.00
29777;DHT22;16677;52.224;7.484;2023-04-19T01:14:56;9.60;1.00
29777;DHT22;16677;52.224;7.484;2023-04-19T01:17:25;9.50;1.00
29777;DHT22;16677;52.224;7.484;2023-04-19T01:20:04;9.50;1.00
29777;DHT22;16677;52.224;7.484;2023-04-19T01:22:34;9.50;1.00
29777;DHT22;16677;52.224;7.484;2023-04-19T01:25:03;9.40;1.00
29777;DHT22;16677;52.224;7.484;2023-04-19T01:27:31;9.50;1.00
29777;DHT22;16677;52.224;7.484;2023-04-19T01:29:59;9.50;1.00
29777;DHT22;16677;52.224;7.484;2023-04-19T01:32:26;9.40;1.00
29777;DHT22;16677;52.224;7.484;2023-04-19T01:34:54;9.40;1.00
29777;DHT22;16677;52.224;7.484;2023-04-19T01:37:21;9.40;1.00
29777;DHT22;16677;52.224;7.484;2023-04-19T01:39:48;9.40;1.00
29777;DHT22;16677;52.224;7.484;2023-04-19T01:42:16;9.30;1.00
29777;DHT22;16677;52.224;7.484;2023-04-19T01:44:43;9.40;1.00
29777;DHT22;16677;52.224;7.484;2023-04-19T01:47:11;9.50;1.00
29777;DHT22;16677;52.224;7.484;2023-04-19T01:49:38;9.50;1.00
29777;DHT22;16677;52.224;7.484;2023-04-19T01:52:06;9.50;99.90
29777;DHT22;16677;52.224;7.484;2023-04-19T01:54:33;9.50;99.90
29777;DHT22;16677;52.224;7.484;2023-04-19T01:57:00;9.50;99.90
29777;DHT22;16677;52.224;7.484;2023-04-19T01:59:28;9.50;99.90
29777;DHT22;16677;52.224;7.484;2023-04-19T02:01:55;9.60;99.90
29777;DHT22;16677;52.224;7.484;2023-04-19T02:04:23;9.60;99.90
29777;DHT22;16677;52.224;7.484;2023-04-19T02:06:50;9.60;99.90
29777;DHT22;16677;52.224;7.484;2023-04-19T02:09:17;9.50;99.90
29777;DHT22;16677;52.224;7.484;2023-04-19T02:11:45;9.60;99.90
29777;DHT22;16677;52.224;7.484;2023-04-19T02:14:12;9.60;99.90
29777;DHT22;16677;52.224;7.484;2023-04-19T02:16:39;9.60;99.90
29777;DHT22;16677;52.224;7.484;2023-04-19T02:19:07;9.60;99.90
29777;DHT22;16677;52.224;7.484;2023-04-19T02:21:34;9.60;99.90
29777;DHT22;16677;52.224;7.484;2023-04-19T02:24:02;9.60;99.90
29777;DHT22;16677;52.224;7.484;2023-04-19T02:26:29;9.70;99.90
29777;DHT22;16677;52.224;7.484;2023-04-19T02:28:56;9.70;99.90
29777;DHT22;16677;52.224;7.484;2023-04-19T02:31:23;9.70;99.90
29777;DHT22;16677;52.224;7.484;2023-04-19T02:33:51;9.60;99.90
29777;DHT22;16677;52.224;7.484;2023-04-19T02:36:18;9.60;99.90
29777;DHT22;16677;52.224;7.484;2023-04-19T02:38:46;9.60;99.90
29777;DHT22;16677;52.224;7.484;2023-04-19T02:41:13;9.70;99.90
29777;DHT22;16677;52.224;7.484;2023-04-19T02:43:42;9.60;99.90
29777;DHT22;16677;52.224;7.484;2023-04-19T02:46:23;9.60;99.90
29777;DHT22;16677;52.224;7.484;2023-04-19T02:48:51;9.60;99.90
29777;DHT22;16677;52.224;7.484;2023-04-19T02:51:18;9.60;69.50
29777;DHT22;16677;52.224;7.484;2023-04-19T02:53:45;9.60;47.60
29777;DHT22;16677;52.224;7.484;2023-04-19T02:56:13;9.60;1.00
29777;DHT22;16677;52.224;7.484;2023-04-19T02:58:41;9.50;1.00
29777;DHT22;16677;52.224;7.484;2023-04-19T03:01:08;9.50;1.00
29777;DHT22;16677;52.224;7.484;2023-04-19T03:03:36;9.50;1.00
29777;DHT22;16677;52.224;7.484;2023-04-19T03:06:04;9.50;1.00
29777;DHT22;16677;52.224;7.484;2023-04-19T03:08:31;9.50;1.00
29777;DHT22;16677;52.224;7.484;2023-04-19T03:10:58;9.50;1.00
29777;DHT22;16677;52.224;7.484;2023-04-19T03:13:26;9.40;1.00
29777;DHT22;16677;52.224;7.484;2023-04-19T03:15:53;9.50;1.00
29777;DHT22;16677;52.224;7.484;2023-04-19T03:18:21;9.50;1.00
29777;DHT22;16677;52.224;7.484;2023-04-19T03:20:48;9.50;1.00
29777;DHT22;16677;52.224;7.484;2023-04-19T03:23:16;9.40;1.00
29777;DHT22;16677;52.224;7.484;2023-04-19T03:25:43;9.40;1.00
29777;DHT22;16677;52.224;7.484;2023-04-19T03:28:11;9.40;1.00
29777;DHT22;16677;52.224;7.484;2023-04-19T03:30:38;9.40;1.00
29777;DHT22;16677;52.224;7.484;2023-04-19T03:33:05;9.30;1.00
29777;DHT22;16677;52.224;7.484;2023-04-19T03:35:32;9.20;1.00
29777;DHT22;16677;52.224;7.484;2023-04-19T03:38:00;9.20;1.00
29777;DHT22;16677;52.224;7.484;2023-04-19T03:40:28;9.10;1.00
29777;DHT22;16677;52.224;7.484;2023-04-19T03:42:56;9.20;1.00
29777;DHT22;16677;52.224;7.484;2023-04-19T03:45:23;9.10;1.00
29777;DHT22;16677;52.224;7.484;2023-04-19T03:47:51;9.00;1.00
29777;DHT22;16677;52.224;7.484;2023-04-19T03:50:19;9.10;1.00
29777;DHT22;16677;52.224;7.484;2023-04-19T03:52:46;9.00;1.00
29777;DHT22;16677;52.224;7.484;2023-04-19T03:55:14;9.00;1.00
29777;DHT22;16677;52.224;7.484;2023-04-19T03:57:41;8.90;1.00
29777;DHT22;16677;52.224;7.484;2023-04-19T04:00:08;8.80;1.00
29777;DHT22;16677;52.224;7.484;2023-04-19T04:02:37;8.80;1.00
29777;DHT22;16677;52.224;7.484;2023-04-19T04:05:06;8.60;1.00
29777;DHT22;16677;52.224;7.484;2023-04-19T04:07:34;8.60;1.00
29777;DHT22;16677;52.224;7.484;2023-04-19T04:10:01;8.50;1.00
29777;DHT22;16677;52.224;7.484;2023-04-19T04:12:28;8.40;1.00
29777;DHT22;16677;52.224;7.484;2023-04-19T04:14:56;8.30;1.00
29777;DHT22;16677;52.224;7.484;2023-04-19T04:17:23;8.30;1.00
29777;DHT22;16677;52.224;7.484;2023-04-19T04:19:51;8.20;1.00
29777;DHT22;16677;52.224;7.484;2023-04-19T04:22:18;8.10;1.00
29777;DHT22;16677;52.224;7.484;2023-04-19T04:24:46;8.00;1.00
29777;DHT22;16677;52.224;7.484;2023-04-19T04:27:15;8.00;1.00
29777;DHT22;16677;52.224;7.484;2023-04-19T04:29:47;7.90;1.00
29777;DHT22;16677;52.224;7.484;2023-04-19T04:32:17;7.90;1.00
29777;DHT22;16677;52.224;7.484;2023-04-19T04:34:49;7.80;1.00
29777;DHT22;16677;52.224;7.484;2023-04-19T04:37:17;7.80;1.00
29777;DHT22;16677;52.224;7.484;2023-04-19T04:39:44;7.70;1.00
29777;DHT22;16677;52.224;7.484;2023-04-19T04:42:12;7.70;1.00
29777;DHT22;16677;52.224;7.484;2023-04-19T04:44:39;7.70;1.00
29777;DHT22;16677;52.224;7.484;2023-04-19T04:47:08;7.50;1.00
29777;DHT22;16677;52.224;7.484;2023-04-19T04:49:35;7.50;1.00
29777;DHT22;16677;52.224;7.484;2023-04-19T04:52:03;7.40;1.00
29777;DHT22;16677;52.224;7.484;2023-04-19T04:54:32;7.20;1.00
29777;DHT22;16677;52.224;7.484;2023-04-19T04:56:59;7.20;1.00
29777;DHT22;16677;52.224;7.484;2023-04-19T04:59:27;7.10;1.00
29777;DHT22;16677;52.224;7.484;2023-04-19T05:01:54;7.00;1.00
29777;DHT22;16677;52.224;7.484;2023-04-19T05:04:21;7.00;1.00
29777;DHT22;16677;52.224;7.484;2023-04-19T05:06:49;7.00;1.00
29777;DHT22;16677;52.224;7.484;2023-04-19T05:09:17;7.00;1.00
29777;DHT22;16677;52.224;7.484;2023-04-19T05:11:44;6.90;1.00
29777;DHT22;16677;52.224;7.484;2023-04-19T05:14:12;6.90;1.00
29777;DHT22;16677;52.224;7.484;2023-04-19T05:16:39;7.00;1.00
29777;DHT22;16677;52.224;7.484;2023-04-19T05:19:07;7.10;1.00
29777;DHT22;16677;52.224;7.484;2023-04-19T05:21:34;7.10;1.00
29777;DHT22;16677;52.224;7.484;2023-04-19T05:24:01;7.10;1.00
29777;DHT22;16677;52.224;7.484;2023-04-19T05:26:29;7.10;1.00
29777;DHT22;16677;52.224;7.484;2023-04-19T05:28:57;7.20;1.00
29777;DHT22;16677;52.224;7.484;2023-04-19T05:31:25;7.00;1.00
29777;DHT22;16677;52.224;7.484;2023-04-19T05:33:52;7.10;1.00
29777;DHT22;16677;52.224;7.484;2023-04-19T05:36:19;7.20;1.00
29777;DHT22;16677;52.224;7.484;2023-04-19T05:38:47;7.30;1.00
29777;DHT22;16677;52.224;7.484;2023-04-19T05:41:14;7.70;1.00
29777;DHT22;16677;52.224;7.484;2023-04-19T05:43:41;7.80;1.00
29777;DHT22;16677;52.224;7.484;2023-04-19T05:46:08;7.70;1.00
29777;DHT22;16677;52.224;7.484;2023-04-19T05:48:36;7.80;1.00
29777;DHT22;16677;52.224;7.484;2023-04-19T05:51:04;7.90;1.00
29777;DHT22;16677;52.224;7.484;2023-04-19T05:53:31;8.00;1.00
29777;DHT22;16677;52.224;7.484;2023-04-19T05:55:58;8.00;1.00
29777;DHT22;16677;52.224;7.484;2023-04-19T05:58:26;8.00;1.00
29777;DHT22;16677;52.224;7.484;2023-04-19T06:00:53;8.20;1.00
29777;DHT22;16677;52.224;7.484;2023-04-19T06:03:20;8.00;1.00
29777;DHT22;16677;52.224;7.484;2023-04-19T06:05:48;8.00;1.00
29777;DHT22;16677;52.224;7.484;2023-04-19T06:08:15;8.20;1.00
29777;DHT22;16677;52.224;7.484;2023-04-19T06:10:43;8.20;1.00
29777;DHT22;16677;52.224;7.484;2023-04-19T06:13:21;8.20;1.00
29777;DHT22;16677;52.224;7.484;2023-04-19T06:15:49;8.40;1.00
29777;DHT22;16677;52.224;7.484;2023-04-19T06:18:16;8.20;1.00
29777;DHT22;16677;52.224;7.484;2023-04-19T06:20:45;8.10;1.00
29777;DHT22;16677;52.224;7.484;2023-04-19T06:23:13;7.80;1.00
29777;DHT22;16677;52.224;7.484;2023-04-19T06:25:41;8.00;1.00
29777;DHT22;16677;52.224;7.484;2023-04-19T06:28:08;8.00;1.00
29777;DHT22;16677;52.224;7.484;2023-04-19T06:30:35;7.90;1.00
29777;DHT22;16677;52.224;7.484;2023-04-19T06:33:02;8.10;1.00
29777;DHT22;16677;52.224;7.484;2023-04-19T06:35:30;8.10;1.00
29777;DHT22;16677;52.224;7.484;2023-04-19T06:37:58;8.30;1.00
29777;DHT22;16677;52.224;7.484;2023-04-19T06:40:25;8.50;1.00
29777;DHT22;16677;52.224;7.484;2023-04-19T06:42:55;8.30;1.00
29777;DHT22;16677;52.224;7.484;2023-04-19T06:45:22;8.30;1.00
29777;DHT22;16677;52.224;7.484;2023-04-19T06:47:49;8.30;1.00
29777;DHT22;16677;52.224;7.484;2023-04-19T06:50:17;8.50;1.00
29777;DHT22;16677;52.224;7.484;2023-04-19T06:52:44;8.90;1.00
29777;DHT22;16677;52.224;7.484;2023-04-19T06:55:11;9.10;1.00
29777;DHT22;16677;52.224;7.484;2023-04-19T06:57:38;9.50;1.00
29777;DHT22;16677;52.224;7.484;2023-04-19T07:00:06;9.70;1.00
29777;DHT22;16677;52.224;7.484;2023-04-19T07:02:34;9.60;1.00
29777;DHT22;16677;52.224;7.484;2023-04-19T07:05:01;9.60;1.00
29777;DHT22;16677;52.224;7.484;2023-04-19T07:07:29;9.40;1.00
29777;DHT22;16677;52.224;7.484;2023-04-19T07:09:56;9.60;1.00
29777;DHT22;16677;52.224;7.484;2023-04-19T07:12:23;9.60;1.00
29777;DHT22;16677;52.224;7.484;2023-04-19T07:14:50;9.80;1.00
29777;DHT22;16677;52.224;7.484;2023-04-19T07:17:22;9.60;1.00
29777;DHT22;16677;52.224;7.484;2023-04-19T07:19:49;9.90;1.00
29777;DHT22;16677;52.224;7.484;2023-04-19T07:22:16;10.10;1.00
29777;DHT22;16677;52.224;7.484;2023-04-19T07:24:43;10.40;1.00
29777;DHT22;16677;52.224;7.484;2023-04-19T07:27:10;10.50;1.00
29777;DHT22;16677;52.224;7.484;2023-04-19T07:29:37;10.50;1.00
29777;DHT22;16677;52.224;7.484;2023-04-19T07:32:06;10.80;1.00
29777;DHT22;16677;52.224;7.484;2023-04-19T07:34:35;10.70;1.00
29777;DHT22;16677;52.224;7.484;2023-04-19T07:37:03;10.80;1.00
29777;DHT22;16677;52.224;7.484;2023-04-19T07:39:30;10.30;1.00
29777;DHT22;16677;52.224;7.484;2023-04-19T07:41:57;10.30;1.00
29777;DHT22;16677;52.224;7.484;2023-04-19T07:44:25;10.50;1.00
29777;DHT22;16677;52.224;7.484;2023-04-19T07:46:52;10.70;1.00
29777;DHT22;16677;52.224;7.484;2023-04-19T07:49:19;10.70;1.00
29777;DHT22;16677;52.224;7.484;2023-04-19T07:51:46;10.70;1.00
29777;DHT22;16677;52.224;7.484;2023-04-19T07:54:13;10.90;1.00
29777;DHT22;16677;52.224;7.484;2023-04-19T07:56:45;11.00;1.00
29777;DHT22;16677;52.224;7.484;2023-04-19T07:59:12;11.30;1.00
29777;DHT22;16677;52.224;7.484;2023-04-19T08:01:40;11.40;1.00
29777;DHT22;16677;52.224;7.484;2023-04-19T08:04:08;11.40;1.00
29777;DHT22;16677;52.224;7.484;2023-04-19T08:06:36;11.20;1.00
29777;DHT22;16677;52.224;7.484;2023-04-19T08:09:05;10.90;1.00
29777;DHT22;16677;52.224;7.484;2023-04-19T08:11:32;10.90;1.00
29777;DHT22;16677;52.224;7.484;2023-04-19T08:13:59;11.00;1.00
29777;DHT22;16677;52.224;7.484;2023-04-19T08:16:30;10.90;1.00
29777;DHT22;16677;52.224;7.484;2023-04-19T08:19:17;11.00;1.00
29777;DHT22;16677;52.224;7.484;2023-04-19T08:21:44;11.20;1.00
29777;DHT22;16677;52.224;7.484;2023-04-19T08:24:11;11.40;1.00
29777;DHT22;16677;52.224;7.484;2023-04-19T08:26:38;11.50;1.00
29777;DHT22;16677;52.224;7.484;2023-04-19T08:29:06;11.60;1.00
29777;DHT22;16677;52.224;7.484;2023-04-19T08:31:33;11.70;1.00
29777;DHT22;16677;52.224;7.484;2023-04-19T08:34:00;11.40;1.00
29777;DHT22;16677;52.224;7.484;2023-04-19T08:36:28;11.20;1.00
29777;DHT22;16677;52.224;7.484;2023-04-19T08:39:06;11.20;1.00
29777;DHT22;16677;52.224;7.484;2023-04-19T08:41:43;11.30;1.00
29777;DHT22;16677;52.224;7.484;2023-04-19T08:44:16;11.40;1.00
29777;DHT22;16677;52.224;7.484;2023-04-19T08:47:01;11.80;1.00
29777;DHT22;16677;52.224;7.484;2023-04-19T08:49:28;11.40;1.00
29777;DHT22;16677;52.224;7.484;2023-04-19T08:52:00;11.40;1.00
29777;DHT22;16677;52.224;7.484;2023-04-19T08:54:28;11.40;1.00
29777;DHT22;16677;52.224;7.484;2023-04-19T08:56:58;11.50;1.00
29777;DHT22;16677;52.224;7.484;2023-04-19T08:59:29;11.60;1.00
29777;DHT22;16677;52.224;7.484;2023-04-19T09:02:02;11.30;1.00
29777;DHT22;16677;52.224;7.484;2023-04-19T09:04:29;11.60;1.00
29777;DHT22;16677;52.224;7.484;2023-04-19T09:07:03;11.50;1.00
29777;DHT22;16677;52.224;7.484;2023-04-19T09:09:30;11.70;1.00
29777;DHT22;16677;52.224;7.484;2023-04-19T09:12:16;11.70;1.00
29777;DHT22;16677;52.224;7.484;2023-04-19T09:14:45;12.00;1.00
29777;DHT22;16677;52.224;7.484;2023-04-19T09:17:16;11.60;1.00
29777;DHT22;16677;52.224;7.484;2023-04-19T09:19:48;11.80;1.00
29777;DHT22;16677;52.224;7.484;2023-04-19T09:22:16;12.10;1.00
29777;DHT22;16677;52.224;7.484;2023-04-19T09:24:44;11.90;1.00
29777;DHT22;16677;52.224;7.484;2023-04-19T09:27:33;11.70;1.00
29777;DHT22;16677;52.224;7.484;2023-04-19T09:30:03;11.50;1.00
29777;DHT22;16677;52.224;7.484;2023-04-19T09:32:46;11.40;1.00
29777;DHT22;16677;52.224;7.484;2023-04-19T09:35:15;11.70;1.00
29777;DHT22;16677;52.224;7.484;2023-04-19T09:37:42;11.70;1.00
29777;DHT22;16677;52.224;7.484;2023-04-19T09:40:25;11.90;1.00
29777;DHT22;16677;52.224;7.484;2023-04-19T09:42:53;12.10;1.00
29777;DHT22;16677;52.224;7.484;2023-04-19T09:45:42;12.50;1.00
29777;DHT22;16677;52.224;7.484;2023-04-19T09:48:11;12.60;1.00
29777;DHT22;16677;52.224;7.484;2023-04-19T09:50:59;12.30;1.00
29777;DHT22;16677;52.224;7.484;2023-04-19T10:09:55;12.50;1.00
29777;DHT22;16677;52.224;7.484;2023-04-19T10:12:38;12.60;1.00
29777;DHT22;16677;52.224;7.484;2023-04-19T10:15:25;12.50;1.00
29777;DHT22;16677;52.224;7.484;2023-04-19T10:18:08;12.80;1.00
29777;DHT22;16677;52.224;7.484;2023-04-19T10:20:41;13.00;1.00
29777;DHT22;16677;52.224;7.484;2023-04-19T10:23:22;12.80;1.00
29777;DHT22;16677;52.224;7.484;2023-04-19T10:25:54;12.90;1.00
29777;DHT22;16677;52.224;7.484;2023-04-19T10:28:21;12.80;1.00
29777;DHT22;16677;52.224;7.484;2023-04-19T10:30:52;13.00;1.00
29777;DHT22;16677;52.224;7.484;2023-04-19T10:33:28;13.00;1.00
29777;DHT22;16677;52.224;7.484;2023-04-19T10:35:58;12.90;1.00
29777;DHT22;16677;52.224;7.484;2023-04-19T10:38:48;12.90;1.00
29777;DHT22;16677;52.224;7.484;2023-04-19T10:41:20;12.90;1.00
29777;DHT22;16677;52.224;7.484;2023-04-19T10:48:58;13.10;1.00
29777;DHT22;16677;52.224;7.484;2023-04-19T10:51:39;13.10;1.00
29777;DHT22;16677;52.224;7.484;2023-04-19T10:54:34;13.10;1.00
29777;DHT22;16677;52.224;7.484;2023-04-19T10:57:08;13.10;1.00
29777;DHT22;16677;52.224;7.484;2023-04-19T10:59:37;13.10;1.00
29777;DHT22;16677;52.224;7.484;2023-04-19T11:07:18;13.20;1.00
29777;DHT22;16677;52.224;7.484;2023-04-19T11:09:47;13.20;1.00
29777;DHT22;16677;52.224;7.484;2023-04-19T11:12:18;13.20;1.00
29777;DHT22;16677;52.224;7.484;2023-04-19T11:14:53;13.30;1.00
29777;DHT22;16677;52.224;7.484;2023-04-19T11:17:24;13.30;1.00
29777;DHT22;16677;52.224;7.484;2023-04-19T11:20:00;13.10;1.00
29777;DHT22;16677;52.224;7.484;2023-04-19T11:27:41;13.30;1.00
29777;DHT22;16677;52.224;7.484;2023-04-19T11:30:10;13.20;1.00
29777;DHT22;16677;52.224;7.484;2023-04-19T11:32:45;13.30;1.00
29777;DHT22;16677;52.224;7.484;2023-04-19T11:35:14;13.60;1.00
29777;DHT22;16677;52.224;7.484;2023-04-19T11:37:43;13.50;1.00
29777;DHT22;16677;52.224;7.484;2023-04-19T11:40:13;13.60;1.00
29777;DHT22;16677;52.224;7.484;2023-04-19T11:42:42;13.70;1.00
29777;DHT22;16677;52.224;7.484;2023-04-19T11:45:10;13.50;1.00
29777;DHT22;16677;52.224;7.484;2023-04-19T11:47:51;13.50;1.00
29777;DHT22;16677;52.224;7.484;2023-04-19T11:55:51;14.00;1.00
29777;DHT22;16677;52.224;7.484;2023-04-19T12:01:05;13.90;1.00
29777;DHT22;16677;52.224;7.484;2023-04-19T12:03:38;14.00;1.00
29777;DHT22;16677;52.224;7.484;2023-04-19T12:06:13;13.90;1.00
29777;DHT22;16677;52.224;7.484;2023-04-19T12:08:42;14.10;1.00
29777;DHT22;16677;52.224;7.484;2023-04-19T12:11:10;14.30;1.00
29777;DHT22;16677;52.224;7.484;2023-04-19T12:13:37;14.70;1.00
29777;DHT22;16677;52.224;7.484;2023-04-19T12:16:06;14.30;1.00
29777;DHT22;16677;52.224;7.484;2023-04-19T12:18:49;14.30;1.00
29777;DHT22;16677;52.224;7.484;2023-04-19T12:21:26;14.50;1.00
29777;DHT22;16677;52.224;7.484;2023-04-19T12:23:54;14.60;1.00
29777;DHT22;16677;52.224;7.484;2023-04-19T12:26:22;14.60;1.00
29777;DHT22;16677;52.224;7.484;2023-04-19T12:28:54;14.50;1.00
29777;DHT22;16677;52.224;7.484;2023-04-19T12:31:21;14.30;1.00
29777;DHT22;16677;52.224;7.484;2023-04-19T12:33:48;14.40;1.00
29777;DHT22;16677;52.224;7.484;2023-04-19T12:36:16;14.40;1.00
29777;DHT22;16677;52.224;7.484;2023-04-19T12:38:43;14.30;1.00
29777;DHT22;16677;52.224;7.484;2023-04-19T12:41:10;14.30;1.00
29777;DHT22;16677;52.224;7.484;2023-04-19T12:43:37;14.40;1.00
29777;DHT22;16677;52.224;7.484;2023-04-19T12:46:04;14.50;1.00
29777;DHT22;16677;52.224;7.484;2023-04-19T12:48:31;14.30;1.00
29777;DHT22;16677;52.224;7.484;2023-04-19T12:50:58;14.70;1.00
29777;DHT22;16677;52.224;7.484;2023-04-19T12:53:25;14.30;1.00
29777;DHT22;16677;52.224;7.484;2023-04-19T12:55:52;14.10;1.00
29777;DHT22;16677;52.224;7.484;2023-04-19T12:58:19;14.20;1.00
29777;DHT22;16677;52.224;7.484;2023-04-19T13:00:47;14.10;1.00
29777;DHT22;16677;52.224;7.484;2023-04-19T13:03:14;14.20;1.00
29777;DHT22;16677;52.224;7.484;2023-04-19T13:05:42;14.20;1.00
29777;DHT22;16677;52.224;7.484;2023-04-19T13:08:08;14.50;1.00
29777;DHT22;16677;52.224;7.484;2023-04-19T13:10:35;14.60;1.00
29777;DHT22;16677;52.224;7.484;2023-04-19T13:13:02;14.60;1.00
29777;DHT22;16677;52.224;7.484;2023-04-19T13:15:29;14.50;1.00
29777;DHT22;16677;52.224;7.484;2023-04-19T13:17:56;14.60;1.00
29777;DHT22;16677;52.224;7.484;2023-04-19T13:20:23;14.70;1.00
29777;DHT22;16677;52.224;7.484;2023-04-19T13:22:50;14.80;1.00
29777;DHT22;16677;52.224;7.484;2023-04-19T13:25:17;14.90;1.00
29777;DHT22;16677;52.224;7.484;2023-04-19T13:27:44;14.90;1.00
29777;DHT22;16677;52.224;7.484;2023-04-19T13:30:12;15.10;1.00
29777;DHT22;16677;52.224;7.484;2023-04-19T13:32:39;15.00;1.00
29777;DHT22;16677;52.224;7.484;2023-04-19T13:35:06;14.80;1.00
29777;DHT22;16677;52.224;7.484;2023-04-19T13:37:34;14.50;1.00
29777;DHT22;16677;52.224;7.484;2023-04-19T13:40:01;14.60;1.00
29777;DHT22;16677;52.224;7.484;2023-04-19T13:42:43;14.90;1.00
29777;DHT22;16677;52.224;7.484;2023-04-19T13:45:11;15.20;1.00
29777;DHT22;16677;52.224;7.484;2023-04-19T13:47:38;15.10;1.00
29777;DHT22;16677;52.224;7.484;2023-04-19T13:50:06;15.20;1.00
29777;DHT22;16677;52.224;7.484;2023-04-19T13:52:33;14.80;1.00
29777;DHT22;16677;52.224;7.484;2023-04-19T13:55:00;14.70;1.00
29777;DHT22;16677;52.224;7.484;2023-04-19T13:57:27;14.60;1.00
29777;DHT22;16677;52.224;7.484;2023-04-19T13:59:54;14.70;1.00
29777;DHT22;16677;52.224;7.484;2023-04-19T14:02:22;14.60;1.00
29777;DHT22;16677;52.224;7.484;2023-04-19T14:04:49;14.60;1.00
29777;DHT22;16677;52.224;7.484;2023-04-19T14:07:16;14.60;1.00
29777;DHT22;16677;52.224;7.484;2023-04-19T14:09:43;15.00;1.00
29777;DHT22;16677;52.224;7.484;2023-04-19T14:12:10;15.40;1.00
29777;DHT22;16677;52.224;7.484;2023-04-19T14:14:37;15.40;1.00
29777;DHT22;16677;52.224;7.484;2023-04-19T14:17:04;15.20;1.00
29777;DHT22;16677;52.224;7.484;2023-04-19T14:19:31;15.20;1.00
29777;DHT22;16677;52.224;7.484;2023-04-19T14:21:59;14.80;1.00
29777;DHT22;16677;52.224;7.484;2023-04-19T14:24:26;14.60;1.00
29777;DHT22;16677;52.224;7.484;2023-04-19T14:26:53;14.40;1.00
29777;DHT22;16677;52.224;7.484;2023-04-19T14:29:36;14.40;1.00
29777;DHT22;16677;52.224;7.484;2023-04-19T14:32:03;14.40;1.00
29777;DHT22;16677;52.224;7.484;2023-04-19T14:34:49;14.40;1.00
29777;DHT22;16677;52.224;7.484;2023-04-19T14:37:17;14.60;1.00
29777;DHT22;16677;52.224;7.484;2023-04-19T14:39:45;14.60;1.00
29777;DHT22;16677;52.224;7.484;2023-04-19T14:42:12;14.80;1.00
29777;DHT22;16677;52.224;7.484;2023-04-19T14:44:39;14.70;1.00
29777;DHT22;16677;52.224;7.484;2023-04-19T14:47:06;15.00;1.00
29777;DHT22;16677;52.224;7.484;2023-04-19T14:49:34;15.20;1.00
29777;DHT22;16677;52.224;7.484;2023-04-19T14:52:01;14.70;1.00
29777;DHT22;16677;52.224;7.484;2023-04-19T14:54:29;14.50;1.00
29777;DHT22;16677;52.224;7.484;2023-04-19T14:56:56;14.60;1.00
29777;DHT22;16677;52.224;7.484;2023-04-19T14:59:23;14.60;1.00
29777;DHT22;16677;52.224;7.484;2023-04-19T15:01:52;14.70;1.00
29777;DHT22;16677;52.224;7.484;2023-04-19T15:04:20;14.70;1.00
29777;DHT22;16677;52.224;7.484;2023-04-19T15:06:47;14.80;1.00
29777;DHT22;16677;52.224;7.484;2023-04-19T15:09:14;14.80;1.00
29777;DHT22;16677;52.224;7.484;2023-04-19T15:11:42;14.80;1.00
29777;DHT22;16677;52.224;7.484;2023-04-19T15:14:09;14.90;1.00
29777;DHT22;16677;52.224;7.484;2023-04-19T15:16:36;14.90;1.00
29777;DHT22;16677;52.224;7.484;2023-04-19T15:19:03;15.00;1.00
29777;DHT22;16677;52.224;7.484;2023-04-19T15:21:33;14.90;1.00
29777;DHT22;16677;52.224;7.484;2023-04-19T15:24:00;14.70;1.00
29777;DHT22;16677;52.224;7.484;2023-04-19T15:26:27;14.40;1.00
29777;DHT22;16677;52.224;7.484;2023-04-19T15:28:54;14.10;1.00
29777;DHT22;16677;52.224;7.484;2023-04-19T15:31:22;14.00;1.00
29777;DHT22;16677;52.224;7.484;2023-04-19T15:33:50;14.30;1.00
29777;DHT22;16677;52.224;7.484;2023-04-19T15:36:17;14.40;1.00
29777;DHT22;16677;52.224;7.484;2023-04-19T15:38:44;14.60;1.00
29777;DHT22;16677;52.224;7.484;2023-04-19T15:41:12;14.80;1.00
29777;DHT22;16677;52.224;7.484;2023-04-19T15:43:39;14.90;1.00
29777;DHT22;16677;52.224;7.484;2023-04-19T15:46:09;15.00;1.00
29777;DHT22;16677;52.224;7.484;2023-04-19T15:48:37;15.30;1.00
29777;DHT22;16677;52.224;7.484;2023-04-19T15:51:04;15.40;1.00
29777;DHT22;16677;52.224;7.484;2023-04-19T15:53:32;15.30;1.00
29777;DHT22;16677;52.224;7.484;2023-04-19T15:55:59;15.10;1.00
29777;DHT22;16677;52.224;7.484;2023-04-19T15:58:26;14.80;1.00
29777;DHT22;16677;52.224;7.484;2023-04-19T16:00:53;14.60;1.00
29777;DHT22;16677;52.224;7.484;2023-04-19T16:03:20;14.70;1.00
29777;DHT22;16677;52.224;7.484;2023-04-19T16:05:47;15.00;1.00
29777;DHT22;16677;52.224;7.484;2023-04-19T16:08:17;15.60;1.00
29777;DHT22;16677;52.224;7.484;2023-04-19T16:10:45;15.20;1.00
29777;DHT22;16677;52.224;7.484;2023-04-19T16:13:13;15.00;1.00
29777;DHT22;16677;52.224;7.484;2023-04-19T16:15:41;14.90;1.00
29777;DHT22;16677;52.224;7.484;2023-04-19T16:18:08;15.10;1.00
29777;DHT22;16677;52.224;7.484;2023-04-19T16:20:36;14.70;1.00
29777;DHT22;16677;52.224;7.484;2023-04-19T16:23:03;15.10;1.00
29777;DHT22;16677;52.224;7.484;2023-04-19T16:25:30;15.50;1.00
29777;DHT22;16677;52.224;7.484;2023-04-19T16:27:58;15.30;1.00
29777;DHT22;16677;52.224;7.484;2023-04-19T16:30:25;15.60;1.00
29777;DHT22;16677;52.224;7.484;2023-04-19T16:32:53;15.50;1.00
29777;DHT22;16677;52.224;7.484;2023-04-19T16:35:20;15.20;1.00
29777;DHT22;16677;52.224;7.484;2023-04-19T16:37:48;15.10;1.00
29777;DHT22;16677;52.224;7.484;2023-04-19T16:40:15;15.20;1.00
29777;DHT22;16677;52.224;7.484;2023-04-19T16:42:42;14.90;1.00
29777;DHT22;16677;52.224;7.484;2023-04-19T16:45:09;14.00;1.00